• Join FlightAware (Why Join?)
  • Login
  • US Flag 
09:35PM EST


 

Airport Tracker/Info


-or-


 

Live Flight TrackerFlight Track Log ✈ SWA395 ✈ 15-Apr-2013 ✈ KTUL - KLAS

Flight Track Log - Related Links

Times and Time Zones

All times are in EDT time to prevent confusion due to time zone crossing. See the SWA395 flight status page for this flight to view local times or setup timezone preferences in your user account.

Time Position Orientation Groundspeed Altitude Reporting Facility
EDT Latitude Longitude Course Direction KTS MPH feet Rate Location/Type
04:06PM 36.1956 -95.8658 148° Southeast 166 191 1,400  Level Kansas City Center
04:08PM 36.1528 -95.8328 148° Southeast 212 244 5,000 2,700 Climbing Kansas City Center
04:09PM 36.1150 -95.8919 232° Southwest 225 259 8,000 2,460 Climbing Kansas City Center
04:10PM 36.1061 -95.9764 263° West 245 282 10,600 2,160 Climbing Kansas City Center
04:11PM 36.0908 -96.0814 260° West 304 350 12,500 2,220 Climbing Kansas City Center
04:12PM 36.0750 -96.1942 260° West 329 379 15,200 2,460 Climbing Kansas City Center
04:13PM 36.0572 -96.3175 260° West 354 407 17,600 2,520 Climbing Kansas City Center
04:14PM 36.0389 -96.4475 260° West 369 425 20,400 2,340 Climbing Kansas City Center
04:15PM 36.0203 -96.5761 260° West 379 436 22,500 1,200 Climbing Kansas City Center
04:16PM 35.9975 -96.7344 260° West 391 450 23,000 480 Climbing Kansas City Center
04:17PM 35.9789 -96.8650 260° West 390 449 23,500 1,140 Climbing Kansas City Center
04:18PM 35.9592 -96.9958 259° West 390 449 25,400 1,560 Climbing Kansas City Center
04:19PM 35.9392 -97.1292 260° West 392 451 26,900 1,380 Climbing Kansas City Center
04:20PM 35.9194 -97.2694 260° West 406 467 28,300 1,740 Climbing Kansas City Center
04:21PM 35.8942 -97.4369 259° West 416 479 30,600 1,920 Climbing Kansas City Center
04:22PM 35.8736 -97.5711 259° West 408 470 32,300 1,500 Climbing Kansas City Center
04:23PM 35.8583 -97.6772 260° West 417 480 33,400 1,320 Climbing Fort Worth Center
04:24PM 35.8372 -97.8131 259° West 412 474 34,800 1,260 Climbing Fort Worth Center
04:25PM 35.8139 -97.9408 257° West 406 467 36,000 1,200 Climbing Fort Worth Center
04:26PM 35.7964 -98.0711 261° West 396 456 37,200 900 Climbing Fort Worth Center
04:27PM 35.7978 -98.2017 271° West 390 449 37,900 360 Climbing Fort Worth Center
04:28PM 35.8011 -98.3322 272° West 385 443 38,000  Climbing Fort Worth Center
04:29PM 35.8042 -98.4578 272° West 385 443 38,000  Level Fort Worth Center
04:30PM 35.8053 -98.5908 271° West 385 443 38,000  Level Fort Worth Center
04:31PM 35.8058 -98.7214 270° West 385 443 38,000  Level Fort Worth Center
04:32PM 35.8097 -98.9289 271° West 382 440 38,000  Level Kansas City Center
04:33PM 35.8072 -98.9822 267° West 385 443 38,000  Level Fort Worth Center
04:34PM 35.8075 -99.1156 270° West 385 443 38,000  Level Fort Worth Center
04:35PM 35.8094 -99.2614 271° West 385 443 38,000  Level Fort Worth Center
04:36PM 35.8117 -99.3919 271° West 385 443 38,000  Level Fort Worth Center
04:38PM 35.8122 -99.6244 270° West 385 443 38,000  Level Albuquerque Center
04:39PM 35.8125 -99.7572 270° West 385 443 38,000  Level Albuquerque Center
04:40PM 35.8131 -99.8894 270° West 385 443 38,000  Level Albuquerque Center
04:41PM 35.8131 -100.0197 270° West 381 438 38,000  Level Albuquerque Center
04:42PM 35.8125 -100.1486 270° West 378 435 38,000  Level Albuquerque Center
04:43PM 35.8128 -100.2806 270° West 382 440 38,000  Level Albuquerque Center
04:44PM 35.8100 -100.4106 269° West 381 438 38,000  Level Albuquerque Center
04:45PM 35.8108 -100.5694 270° West 383 441 38,000  Level Albuquerque Center
04:46PM 35.8086 -100.6997 269° West 382 440 38,000  Level Albuquerque Center
04:47PM 35.8078 -100.8322 270° West 385 443 38,000  Level Albuquerque Center
04:48PM 35.8078 -100.9561 270° West 385 443 38,000  Level Albuquerque Center
04:49PM 35.8056 -101.1128 269° West 385 443 38,000  Level Albuquerque Center
04:50PM 35.8047 -101.2433 270° West 384 442 38,000  Level Albuquerque Center
04:51PM 35.8028 -101.3731 269° West 383 441 38,000  Level Albuquerque Center
04:52PM 35.8008 -101.5011 269° West 379 436 38,000  Level Albuquerque Center
04:53PM 35.7994 -101.6314 269° West 382 440 38,000  Level Albuquerque Center
04:54PM 35.7972 -101.7611 269° West 382 440 38,000  Level Albuquerque Center
04:55PM 35.7953 -101.9183 269° West 385 443 38,000  Level Albuquerque Center
04:56PM 35.7931 -102.0517 269° West 390 449 38,000  Level Albuquerque Center
04:57PM 35.7900 -102.1844 268° West 390 449 38,000  Level Albuquerque Center
04:58PM 35.7872 -102.3153 269° West 387 445 38,000  Level Albuquerque Center
04:59PM 35.7847 -102.4458 269° West 384 442 38,000  Level Albuquerque Center
05:00PM 35.7822 -102.6036 269° West 385 443 38,000  Level Albuquerque Center
05:02PM 35.7775 -102.7356 268° West 387 445 38,000  Level Albuquerque Center
05:03PM 35.7753 -102.8683 269° West 388 447 38,000  Level Albuquerque Center
05:04PM 35.7703 -103.0022 267° West 390 449 38,000  Level Albuquerque Center
05:05PM 35.7686 -103.1350 269° West 387 445 38,000  Level Albuquerque Center
05:06PM 35.7639 -103.2664 268° West 383 441 38,000  Level Albuquerque Center
05:07PM 35.7600 -103.4203 268° West 383 441 38,000  Level Albuquerque Center
05:08PM 35.7558 -103.5506 268° West 381 438 38,000  Level Albuquerque Center
05:09PM 35.7528 -103.6808 268° West 379 436 38,000  Level Albuquerque Center
05:10PM 35.7475 -103.8136 267° West 385 443 38,000  Level Albuquerque Center
05:11PM 35.7433 -103.9481 268° West 390 449 38,000  Level Albuquerque Center
05:12PM 35.7389 -104.0833 268° West 394 453 38,000  Level Albuquerque Center
05:13PM 35.7325 -104.2414 267° West 395 455 38,000  Level Albuquerque Center
05:14PM 35.7275 -104.3750 267° West 391 450 38,000  Level Albuquerque Center
05:15PM 35.7228 -104.5089 268° West 391 450 38,000  Level Albuquerque Center
05:16PM 35.7175 -104.6381 267° West 381 438 38,000  Level Albuquerque Center
05:17PM 35.7119 -104.7672 267° West 377 434 38,000  Level Albuquerque Center
05:18PM 35.7078 -104.8972 268° West 377 434 38,000  Level Albuquerque Center
05:19PM 35.7006 -105.0269 266° West 378 435 38,000  Level Albuquerque Center
05:20PM 35.6936 -105.1772 267° West 377 434 38,000  Level Albuquerque Center
05:21PM 35.6886 -105.3081 267° West 380 437 38,000  Level Albuquerque Center
05:22PM 35.6825 -105.4381 267° West 379 436 38,000  Level Albuquerque Center
05:23PM 35.6761 -105.5622 266° West 384 442 38,000  Level Albuquerque Center
05:24PM 35.6703 -105.6958 267° West 390 449 38,000  Level Albuquerque Center
05:25PM 35.6653 -105.8256 267° West 384 442 38,000  Level Albuquerque Center
05:26PM 35.6569 -105.9811 266° West 382 440 38,000  Level Albuquerque Center
05:27PM 35.6506 -106.1092 267° West 378 435 38,000  Level Albuquerque Center
05:28PM 35.6444 -106.2525 267° West 385 443 38,000  Level Albuquerque Center
05:29PM 35.6381 -106.3708 266° West 385 443 38,000  Level Albuquerque Center
05:30PM 35.6300 -106.4983 266° West 380 437 38,000  Level Albuquerque Center
05:31PM 35.6242 -106.6272 267° West 379 436 38,000  Level Albuquerque Center
05:32PM 35.6144 -106.7806 266° West 377 434 38,000  Level Albuquerque Center
05:33PM 35.6072 -106.9081 266° West 378 435 38,000  Level Albuquerque Center
05:35PM 35.5997 -107.0331 266° West 372 428 38,000  Level Albuquerque Center
05:36PM 35.5925 -107.1575 266° West 369 425 38,000  Level Albuquerque Center
05:37PM 35.5842 -107.2917 266° West 369 425 38,000  Level Albuquerque Center
05:38PM 35.5756 -107.4344 266° West 373 429 38,000  Level Albuquerque Center
05:39PM 35.5672 -107.5578 265° West 377 434 38,000  Level Albuquerque Center
05:40PM 35.5586 -107.7011 266° West 376 433 38,000  Level Albuquerque Center
05:41PM 35.5497 -107.8239 265° West 376 433 38,000  Level Albuquerque Center
05:42PM 35.5417 -107.9447 265° West 373 429 38,000  Level Albuquerque Center
05:43PM 35.5333 -108.0853 266° West 370 426 38,000  Level Albuquerque Center
05:44PM 35.5247 -108.2078 265° West 373 429 38,000  Level Albuquerque Center
05:45PM 35.5150 -108.3539 265° West 380 437 38,000  Level Albuquerque Center
05:46PM 35.5050 -108.4806 264° West 386 444 38,000  Level Albuquerque Center
05:47PM 35.4953 -108.6294 265° West 388 447 38,000  Level Albuquerque Center
05:48PM 35.4850 -108.7575 264° West 391 450 38,000  Level Albuquerque Center
05:49PM 35.4778 -108.8861 266° West 393 452 38,000  Level Albuquerque Center
05:50PM 35.4853 -109.0339 274° West 388 447 38,000  Level Albuquerque Center
05:51PM 35.4922 -109.1608 274° West 387 445 38,000  Level Albuquerque Center
05:52PM 35.4992 -109.3078 273° West 386 444 38,000  Level Albuquerque Center
05:53PM 35.5053 -109.4342 273° West 386 444 38,000  Level Albuquerque Center
05:54PM 35.5100 -109.5619 273° West 389 448 38,000  Level Albuquerque Center
05:55PM 35.5172 -109.7100 273° West 389 448 38,000  Level Albuquerque Center
05:56PM 35.5225 -109.8367 273° West 388 447 38,000  Level Albuquerque Center
05:57PM 35.5269 -109.9836 272° West 386 444 38,000  Level Albuquerque Center
05:58PM 35.5308 -110.1083 272° West 385 443 38,000  Level Albuquerque Center
05:59PM 35.5356 -110.2344 273° West 386 444 38,000  Level Albuquerque Center
06:00PM 35.5400 -110.3825 272° West 387 445 38,000 -240 Level Albuquerque Center
06:01PM 35.5450 -110.5100 273° West 389 448 37,600 -780 Descending Albuquerque Center
06:02PM 35.5522 -110.6567 274° West 387 445 36,500 -840 Descending Albuquerque Center
06:03PM 35.5561 -110.7792 272° West 379 436 36,000 -300 Descending Albuquerque Center
06:04PM 35.5592 -110.9217 272° West 376 433 36,000  Level Albuquerque Center
06:05PM 35.5642 -111.0456 273° West 378 435 36,000  Level Albuquerque Center
06:06PM 35.5694 -111.1706 273° West 380 437 36,000  Level Albuquerque Center
06:07PM 35.5742 -111.3142 272° West 379 436 36,000 -180 Level Albuquerque Center
06:08PM 35.5775 -111.4478 272° West 384 442 35,700 -1,740 Descending Albuquerque Center
06:09PM 35.5819 -111.5819 272° West 393 452 32,500 -2,820 Descending Albuquerque Center
06:11PM 35.5858 -111.7161 272° West 396 456 30,000 -1,260 Descending Albuquerque Center
06:12PM 35.5897 -111.8464 272° West 388 447 30,000  Level Albuquerque Center
06:13PM 35.5936 -111.9728 272° West 379 436 30,000  Level Albuquerque Center
06:14PM 35.5961 -112.0989 271° West 373 429 30,000 -300 Level Albuquerque Center
06:15PM 35.5994 -112.2258 272° West 373 429 29,500 -840 Descending Los Angeles Center
06:16PM 35.6036 -112.3867 272° West 390 449 28,400 -780 Descending Los Angeles Center
06:17PM 35.6072 -112.5211 272° West 397 457 28,000 -240 Descending Los Angeles Center
06:18PM 35.6097 -112.6603 271° West 382 440 28,000  Level Los Angeles Center
06:19PM 35.6122 -112.7892 271° West 378 435 28,000  Level Los Angeles Center
06:20PM 35.6144 -112.9192 271° West 380 437 28,000  Level Los Angeles Center
06:21PM 35.6172 -113.0553 271° West 378 435 28,000  Level Los Angeles Center
06:22PM 35.6197 -113.1864 271° West 381 438 28,000  Level Los Angeles Center
06:23PM 35.6214 -113.3142 271° West 382 440 28,000  Level Los Angeles Center
06:24PM 35.6236 -113.4422 271° West 380 437 28,000 -900 Level Los Angeles Center
06:25PM 35.6275 -113.5694 272° West 377 434 26,200 -2,340 Descending Los Angeles Center
06:26PM 35.6489 -113.7122 280° West 359 413 23,200 -2,640 Descending Los Angeles Center
06:27PM 35.6658 -113.8303 280° West 355 409 20,800 -2,040 Descending Los Angeles Center
06:28PM 35.6817 -113.9442 280° West 345 397 19,000 -1,860 Descending Los Angeles Center
06:29PM 35.7000 -114.0761 280° West 332 382 16,700 -2,220 Descending Los Angeles Center
06:30PM 35.7194 -114.1953 281° West 319 367 14,100 -2,460 Descending Los Angeles Center
06:31PM 35.7278 -114.2694 278° West 318 366 12,600 -1,500 Descending Los Angeles Center
06:31PM 35.7286 -114.2933 272° West 311 358 12,500 -540 Descending Los Angeles Center
06:32PM 35.7433 -114.3678 284° West 296 341 12,100 -540 Descending Los Angeles Center
06:32PM 35.7536 -114.3844 307° West 294 338 12,000 -120 Descending Los Angeles Center
06:33PM 35.8106 -114.4167 335° Northwest 288 331 12,000  Level Los Angeles Center
06:33PM 35.8417 -114.4294 342° North 282 325 12,000  Level Los Angeles Center
06:34PM 35.8800 -114.4464 340° North 283 326 12,000 -720 Level Los Angeles Center
06:34PM 35.9147 -114.4644 337° Northwest 282 325 11,300 -1,380 Descending Los Angeles Center
06:35PM 35.9628 -114.4875 339° North 279 321 10,500 -1,020 Descending Los Angeles Center
06:35PM 35.9875 -114.4969 343° North 280 322 10,300 -540 Descending Los Angeles Center
06:36PM 36.0308 -114.5206 336° Northwest 262 302 10,000 -300 Descending Los Angeles Center
06:36PM 36.0414 -114.5425 301° West 247 284 10,000  Level Los Angeles Center
06:37PM 36.0497 -114.5861 283° West 222 255 10,000 -300 Level Los Angeles Center
06:37PM 36.0528 -114.6150 277° West 216 249 9,700 -900 Descending Los Angeles Center
06:38PM 36.0631 -114.6561 287° West 210 242 9,100 -1,200 Descending Los Angeles Center
06:39PM 36.0669 -114.6875 279° West 214 246 8,500 -1,200 Descending Los Angeles Center
06:39PM 36.0731 -114.7300 280° West 242 278 8,000 -780 Descending Los Angeles Center
06:40PM 36.0758 -114.7839 274° West 229 264 7,700 -720 Descending Los Angeles Center
06:40PM 36.0753 -114.8092 268° West 229 264 7,300 -1,080 Descending Los Angeles Center
06:41PM 36.0753 -114.8628 270° West 230 265 6,600 -1,140 Descending Los Angeles Center
06:41PM 36.0731 -114.8872 264° West 219 252 6,200 -1,500 Descending Los Angeles Center
06:42PM 36.0742 -114.9367 272° West 224 258 5,100 -1,440 Descending Los Angeles Center
06:42PM 36.0728 -114.9644 266° West 196 226 4,600 -1,020 Descending Los Angeles Center
06:43PM 36.0744 -114.9992 273° West 204 235 4,100 -840 Descending Los Angeles Center
06:44PM 36.0744 -115.0533 270° West 179 206 3,200 -900 Descending Los Angeles Center
06:44PM 36.0733 -115.0761 267° West 144 166 2,900 -780 Descending Los Angeles Center
06:45PM 36.0736 -115.1017 271° West 159 183 2,400 -480 Descending Los Angeles Center
06:46PM 36.0744 -115.1492 271° West 150 173 2,100 -300 Descending Los Angeles Center